sensor_id;sensor_type;location;lat;lon;timestamp;pressure;altitude;pressure_sealevel;temperature;humidity
78485;BME280;67773;50.806;8.776;2023-03-17T00:01:40;99388.38;;;1.49;79.74
78485;BME280;67773;50.806;8.776;2023-03-17T00:04:10;99384.91;;;1.47;79.70
78485;BME280;67773;50.806;8.776;2023-03-17T00:06:36;99391.00;;;1.45;78.98
78485;BME280;67773;50.806;8.776;2023-03-17T00:09:01;99396.19;;;1.50;79.46
78485;BME280;67773;50.806;8.776;2023-03-17T00:11:27;99390.84;;;1.55;78.93
78485;BME280;67773;50.806;8.776;2023-03-17T00:13:52;99391.72;;;1.57;78.95
78485;BME280;67773;50.806;8.776;2023-03-17T00:16:20;99395.41;;;1.43;79.21
78485;BME280;67773;50.806;8.776;2023-03-17T00:18:48;99388.56;;;1.38;79.44
78485;BME280;67773;50.806;8.776;2023-03-17T00:21:17;99394.69;;;1.35;79.72
78485;BME280;67773;50.806;8.776;2023-03-17T00:23:48;99403.50;;;1.31;79.01
78485;BME280;67773;50.806;8.776;2023-03-17T00:26:15;99380.78;;;1.33;79.48
78485;BME280;67773;50.806;8.776;2023-03-17T00:28:41;99386.09;;;1.30;79.55
78485;BME280;67773;50.806;8.776;2023-03-17T00:31:18;99385.19;;;1.31;79.97
78485;BME280;67773;50.806;8.776;2023-03-17T00:33:45;99378.16;;;1.33;79.71
78485;BME280;67773;50.806;8.776;2023-03-17T00:36:15;99352.19;;;1.26;79.55
78485;BME280;67773;50.806;8.776;2023-03-17T00:38:42;99375.53;;;1.36;79.57
78485;BME280;67773;50.806;8.776;2023-03-17T00:41:10;99373.59;;;1.44;79.38
78485;BME280;67773;50.806;8.776;2023-03-17T00:43:36;99382.41;;;1.40;79.79
78485;BME280;67773;50.806;8.776;2023-03-17T00:46:09;99389.34;;;1.41;79.72
78485;BME280;67773;50.806;8.776;2023-03-17T00:48:35;99386.75;;;1.41;78.98
78485;BME280;67773;50.806;8.776;2023-03-17T00:51:01;99366.94;;;1.28;79.41
78485;BME280;67773;50.806;8.776;2023-03-17T00:53:26;99380.81;;;1.32;79.50
78485;BME280;67773;50.806;8.776;2023-03-17T00:55:51;99367.59;;;1.41;79.13
78485;BME280;67773;50.806;8.776;2023-03-17T00:58:26;99358.91;;;1.39;79.70
78485;BME280;67773;50.806;8.776;2023-03-17T01:00:53;99347.84;;;1.23;79.50
78485;BME280;67773;50.806;8.776;2023-03-17T01:03:20;99353.84;;;1.30;79.67
78485;BME280;67773;50.806;8.776;2023-03-17T01:05:47;99359.09;;;1.28;79.87
78485;BME280;67773;50.806;8.776;2023-03-17T01:08:12;99354.78;;;1.27;79.73
78485;BME280;67773;50.806;8.776;2023-03-17T01:10:38;99359.19;;;1.24;79.51
78485;BME280;67773;50.806;8.776;2023-03-17T01:13:05;99366.94;;;1.28;79.53
78485;BME280;67773;50.806;8.776;2023-03-17T01:15:31;99365.19;;;1.29;79.04
78485;BME280;67773;50.806;8.776;2023-03-17T01:17:58;99362.66;;;1.24;79.61
78485;BME280;67773;50.806;8.776;2023-03-17T01:20:32;99362.66;;;1.24;79.89
78485;BME280;67773;50.806;8.776;2023-03-17T01:22:59;99367.06;;;1.22;79.68
78485;BME280;67773;50.806;8.776;2023-03-17T01:25:25;99359.22;;;1.22;80.15
78485;BME280;67773;50.806;8.776;2023-03-17T01:27:53;99354.88;;;1.21;79.08
78485;BME280;67773;50.806;8.776;2023-03-17T01:32:45;99337.41;;;1.23;79.17
78485;BME280;67773;50.806;8.776;2023-03-17T01:35:10;99334.94;;;1.15;79.66
78485;BME280;67773;50.806;8.776;2023-03-17T01:37:36;99331.50;;;1.12;79.34
78485;BME280;67773;50.806;8.776;2023-03-17T01:40:03;99335.91;;;1.10;79.98
78485;BME280;67773;50.806;8.776;2023-03-17T01:42:29;99337.53;;;1.17;79.95
78485;BME280;67773;50.806;8.776;2023-03-17T01:44:56;99331.38;;;1.20;79.14
78485;BME280;67773;50.806;8.776;2023-03-17T01:47:24;99335.94;;;1.08;79.61
78485;BME280;67773;50.806;8.776;2023-03-17T01:49:51;99327.31;;;1.05;80.03
78485;BME280;67773;50.806;8.776;2023-03-17T01:52:18;99324.66;;;1.06;79.86
78485;BME280;67773;50.806;8.776;2023-03-17T01:57:28;99326.59;;;0.94;79.73
78485;BME280;67773;50.806;8.776;2023-03-17T02:00:08;99323.88;;;1.01;80.48
78485;BME280;67773;50.806;8.776;2023-03-17T02:02:36;99327.63;;;0.86;80.63
78485;BME280;67773;50.806;8.776;2023-03-17T02:05:04;99316.53;;;0.74;80.72
78485;BME280;67773;50.806;8.776;2023-03-17T02:07:31;99320.00;;;0.74;80.34
78485;BME280;67773;50.806;8.776;2023-03-17T02:09:57;99320.09;;;0.68;80.69
78485;BME280;67773;50.806;8.776;2023-03-17T02:12:24;99310.47;;;0.70;81.33
78485;BME280;67773;50.806;8.776;2023-03-17T02:14:52;99301.75;;;0.71;80.77
78485;BME280;67773;50.806;8.776;2023-03-17T02:17:18;99300.84;;;0.72;80.73
78485;BME280;67773;50.806;8.776;2023-03-17T02:19:44;99310.56;;;0.66;81.02
78485;BME280;67773;50.806;8.776;2023-03-17T02:22:10;99310.53;;;0.67;80.87
78485;BME280;67773;50.806;8.776;2023-03-17T02:24:55;99314.13;;;0.60;81.11
78485;BME280;67773;50.806;8.776;2023-03-17T02:27:47;99301.09;;;0.58;81.18
78485;BME280;67773;50.806;8.776;2023-03-17T02:30:16;99294.25;;;0.53;81.40
78485;BME280;67773;50.806;8.776;2023-03-17T02:32:43;99293.41;;;0.49;81.20
78485;BME280;67773;50.806;8.776;2023-03-17T02:35:09;99290.06;;;0.41;81.96
78485;BME280;67773;50.806;8.776;2023-03-17T02:37:34;99296.19;;;0.42;81.96
78485;BME280;67773;50.806;8.776;2023-03-17T02:40:00;99294.50;;;0.36;81.34
78485;BME280;67773;50.806;8.776;2023-03-17T02:42:27;99292.78;;;0.35;81.33
78485;BME280;67773;50.806;8.776;2023-03-17T02:44:53;99295.38;;;0.37;81.65
78485;BME280;67773;50.806;8.776;2023-03-17T02:47:19;99295.31;;;0.40;81.96
78485;BME280;67773;50.806;8.776;2023-03-17T02:49:45;99302.25;;;0.41;81.71
78485;BME280;67773;50.806;8.776;2023-03-17T02:52:11;99308.41;;;0.37;81.72
78485;BME280;67773;50.806;8.776;2023-03-17T02:54:37;99305.88;;;0.34;82.05
78485;BME280;67773;50.806;8.776;2023-03-17T02:57:02;99313.69;;;0.34;81.53
78485;BME280;67773;50.806;8.776;2023-03-17T02:59:28;99309.31;;;0.36;81.43
78485;BME280;67773;50.806;8.776;2023-03-17T03:01:53;99294.56;;;0.33;81.90
78485;BME280;67773;50.806;8.776;2023-03-17T03:04:20;99291.94;;;0.35;81.59
78485;BME280;67773;50.806;8.776;2023-03-17T03:06:46;99294.66;;;0.27;81.78
78485;BME280;67773;50.806;8.776;2023-03-17T03:09:12;99281.78;;;0.16;82.10
78485;BME280;67773;50.806;8.776;2023-03-17T03:11:39;99265.50;;;-0.01;82.09
78485;BME280;67773;50.806;8.776;2023-03-17T03:14:05;99268.06;;;0.02;82.53
78485;BME280;67773;50.806;8.776;2023-03-17T03:16:31;99274.88;;;0.12;82.50
78485;BME280;67773;50.806;8.776;2023-03-17T03:18:56;99266.09;;;0.16;82.58
78485;BME280;67773;50.806;8.776;2023-03-17T03:21:22;99270.34;;;0.23;82.33
78485;BME280;67773;50.806;8.776;2023-03-17T03:23:48;99248.81;;;0.09;82.02
78485;BME280;67773;50.806;8.776;2023-03-17T03:26:13;99275.59;;;0.22;81.84
78485;BME280;67773;50.806;8.776;2023-03-17T03:28:39;99272.13;;;0.20;82.28
78485;BME280;67773;50.806;8.776;2023-03-17T03:31:04;99277.47;;;0.14;82.16
78485;BME280;67773;50.806;8.776;2023-03-17T03:33:30;99266.13;;;0.15;82.18
78485;BME280;67773;50.806;8.776;2023-03-17T03:35:55;99273.13;;;0.13;82.49
78485;BME280;67773;50.806;8.776;2023-03-17T03:38:21;99274.97;;;0.06;82.29
78485;BME280;67773;50.806;8.776;2023-03-17T03:40:46;99266.38;;;-0.02;82.53
78485;BME280;67773;50.806;8.776;2023-03-17T03:43:12;99268.13;;;-0.03;82.30
78485;BME280;67773;50.806;8.776;2023-03-17T03:45:37;99257.91;;;-0.16;82.20
78485;BME280;67773;50.806;8.776;2023-03-17T03:48:03;99272.53;;;-0.06;82.64
78485;BME280;67773;50.806;8.776;2023-03-17T03:50:28;99245.69;;;-0.14;82.57
78485;BME280;67773;50.806;8.776;2023-03-17T03:52:53;99263.88;;;-0.08;82.95
78485;BME280;67773;50.806;8.776;2023-03-17T03:55:19;99260.34;;;-0.06;83.03
78485;BME280;67773;50.806;8.776;2023-03-17T03:57:44;99268.97;;;0.01;82.83
78485;BME280;67773;50.806;8.776;2023-03-17T04:00:11;99275.06;;;0.00;82.63
78485;BME280;67773;50.806;8.776;2023-03-17T04:02:38;99262.06;;;-0.05;82.85
78485;BME280;67773;50.806;8.776;2023-03-17T04:05:04;99263.84;;;-0.07;82.82
78485;BME280;67773;50.806;8.776;2023-03-17T04:07:31;99264.78;;;-0.09;82.40
78485;BME280;67773;50.806;8.776;2023-03-17T04:09:56;99253.47;;;-0.11;82.62
78485;BME280;67773;50.806;8.776;2023-03-17T04:12:24;99259.56;;;-0.12;83.20
78485;BME280;67773;50.806;8.776;2023-03-17T04:14:49;99250.06;;;-0.15;83.12
78485;BME280;67773;50.806;8.776;2023-03-17T04:17:15;99232.75;;;-0.19;82.84
78485;BME280;67773;50.806;8.776;2023-03-17T04:19:40;99248.28;;;-0.13;83.08
78485;BME280;67773;50.806;8.776;2023-03-17T04:22:06;99249.13;;;-0.12;82.62
78485;BME280;67773;50.806;8.776;2023-03-17T04:24:33;99241.28;;;-0.11;82.80
78485;BME280;67773;50.806;8.776;2023-03-17T04:26:59;99246.56;;;-0.14;82.87
78485;BME280;67773;50.806;8.776;2023-03-17T04:29:25;99242.97;;;-0.05;82.45
78485;BME280;67773;50.806;8.776;2023-03-17T04:31:50;99247.25;;;-0.03;82.85
78485;BME280;67773;50.806;8.776;2023-03-17T04:34:17;99250.69;;;0.03;82.40
78485;BME280;67773;50.806;8.776;2023-03-17T04:36:44;99239.31;;;0.05;82.30
78485;BME280;67773;50.806;8.776;2023-03-17T04:39:10;99238.50;;;0.03;82.06
78485;BME280;67773;50.806;8.776;2023-03-17T04:41:36;99240.25;;;0.01;82.44
78485;BME280;67773;50.806;8.776;2023-03-17T04:44:01;99243.75;;;0.00;82.62
78485;BME280;67773;50.806;8.776;2023-03-17T04:46:27;99259.41;;;-0.02;81.96
78485;BME280;67773;50.806;8.776;2023-03-17T04:48:52;99262.03;;;-0.02;82.76
78485;BME280;67773;50.806;8.776;2023-03-17T04:51:18;99247.22;;;-0.01;82.24
78485;BME280;67773;50.806;8.776;2023-03-17T04:53:43;99248.13;;;-0.02;82.76
78485;BME280;67773;50.806;8.776;2023-03-17T04:56:09;99248.97;;;0.00;82.94
78485;BME280;67773;50.806;8.776;2023-03-17T04:58:35;99253.38;;;-0.04;82.17
78485;BME280;67773;50.806;8.776;2023-03-17T05:01:00;99245.50;;;-0.02;82.09
78485;BME280;67773;50.806;8.776;2023-03-17T05:03:26;99249.09;;;-0.08;82.36
78485;BME280;67773;50.806;8.776;2023-03-17T05:05:52;99246.59;;;-0.15;82.70
78485;BME280;67773;50.806;8.776;2023-03-17T05:08:17;99244.91;;;-0.19;82.71
78485;BME280;67773;50.806;8.776;2023-03-17T05:10:42;99238.81;;;-0.18;82.41
78485;BME280;67773;50.806;8.776;2023-03-17T05:13:08;99235.41;;;-0.23;82.83
78485;BME280;67773;50.806;8.776;2023-03-17T05:15:33;99246.69;;;-0.23;83.06
78485;BME280;67773;50.806;8.776;2023-03-17T05:17:58;99244.06;;;-0.21;83.35
78485;BME280;67773;50.806;8.776;2023-03-17T05:20:24;99245.81;;;-0.23;82.77
78485;BME280;67773;50.806;8.776;2023-03-17T05:22:49;99257.84;;;-0.10;82.94
78485;BME280;67773;50.806;8.776;2023-03-17T05:25:14;99269.13;;;-0.10;83.00
78485;BME280;67773;50.806;8.776;2023-03-17T05:27:41;99261.28;;;-0.08;82.79
78485;BME280;67773;50.806;8.776;2023-03-17T05:30:08;99254.50;;;-0.21;82.42
78485;BME280;67773;50.806;8.776;2023-03-17T05:32:33;99247.53;;;-0.19;82.74
78485;BME280;67773;50.806;8.776;2023-03-17T05:34:59;99239.84;;;-0.32;83.37
78485;BME280;67773;50.806;8.776;2023-03-17T05:37:24;99246.81;;;-0.32;83.28
78485;BME280;67773;50.806;8.776;2023-03-17T05:39:49;99252.06;;;-0.34;83.28
78485;BME280;67773;50.806;8.776;2023-03-17T05:42:16;99246.78;;;-0.29;83.30
78485;BME280;67773;50.806;8.776;2023-03-17T05:44:42;99241.56;;;-0.29;83.40
78485;BME280;67773;50.806;8.776;2023-03-17T05:47:07;99240.75;;;-0.34;83.33
78485;BME280;67773;50.806;8.776;2023-03-17T05:49:33;99238.13;;;-0.31;83.10
78485;BME280;67773;50.806;8.776;2023-03-17T05:51:58;99244.22;;;-0.31;83.71
78485;BME280;67773;50.806;8.776;2023-03-17T05:54:23;99259.75;;;-0.24;83.60
78485;BME280;67773;50.806;8.776;2023-03-17T05:56:49;99262.22;;;-0.15;82.90
78485;BME280;67773;50.806;8.776;2023-03-17T05:59:14;99263.06;;;-0.10;82.73
78485;BME280;67773;50.806;8.776;2023-03-17T06:01:41;99262.06;;;-0.05;82.93
78485;BME280;67773;50.806;8.776;2023-03-17T06:04:06;99247.28;;;-0.04;82.96
78485;BME280;67773;50.806;8.776;2023-03-17T06:06:32;99248.97;;;0.00;82.75
78485;BME280;67773;50.806;8.776;2023-03-17T06:08:57;99255.91;;;-0.01;82.46
78485;BME280;67773;50.806;8.776;2023-03-17T06:11:23;99224.06;;;-0.19;82.42
78485;BME280;67773;50.806;8.776;2023-03-17T06:13:48;99247.22;;;0.02;82.28
78485;BME280;67773;50.806;8.776;2023-03-17T06:16:14;99244.53;;;0.05;82.52
78485;BME280;67773;50.806;8.776;2023-03-17T06:18:39;99248.78;;;0.12;82.04
78485;BME280;67773;50.806;8.776;2023-03-17T06:21:05;99248.00;;;0.06;82.52
78485;BME280;67773;50.806;8.776;2023-03-17T06:23:30;99246.28;;;0.05;82.27
78485;BME280;67773;50.806;8.776;2023-03-17T06:25:55;99246.22;;;0.11;82.01
78485;BME280;67773;50.806;8.776;2023-03-17T06:28:21;99244.47;;;0.10;82.10
78485;BME280;67773;50.806;8.776;2023-03-17T06:30:47;99246.19;;;0.09;82.22
78485;BME280;67773;50.806;8.776;2023-03-17T06:33:12;99242.66;;;0.15;81.92
78485;BME280;67773;50.806;8.776;2023-03-17T06:35:37;99229.59;;;0.15;81.78
78485;BME280;67773;50.806;8.776;2023-03-17T06:38:03;99249.47;;;0.23;81.84
78485;BME280;67773;50.806;8.776;2023-03-17T06:40:29;99246.72;;;0.31;82.06
78485;BME280;67773;50.806;8.776;2023-03-17T06:42:56;99246.75;;;0.29;81.58
78485;BME280;67773;50.806;8.776;2023-03-17T06:45:21;99233.00;;;0.18;81.58
78485;BME280;67773;50.806;8.776;2023-03-17T06:47:47;99237.34;;;0.19;82.18
78485;BME280;67773;50.806;8.776;2023-03-17T06:50:12;99218.47;;;0.04;81.61
78485;BME280;67773;50.806;8.776;2023-03-17T06:52:38;99241.66;;;0.23;81.65
78485;BME280;67773;50.806;8.776;2023-03-17T06:55:04;99243.31;;;0.27;82.32
78485;BME280;67773;50.806;8.776;2023-03-17T06:57:30;99245.81;;;0.35;81.32
78485;BME280;67773;50.806;8.776;2023-03-17T06:59:55;99257.94;;;0.38;81.48
78485;BME280;67773;50.806;8.776;2023-03-17T07:02:21;99251.78;;;0.42;81.21
78485;BME280;67773;50.806;8.776;2023-03-17T07:04:47;99255.03;;;0.56;81.43
78485;BME280;67773;50.806;8.776;2023-03-17T07:07:12;99254.81;;;0.67;80.98
78485;BME280;67773;50.806;8.776;2023-03-17T07:09:37;99246.69;;;0.82;80.75
78485;BME280;67773;50.806;8.776;2023-03-17T07:12:04;99254.47;;;0.86;80.39
78485;BME280;67773;50.806;8.776;2023-03-17T07:14:34;99252.44;;;1.01;79.88
78485;BME280;67773;50.806;8.776;2023-03-17T07:17:01;99250.75;;;0.98;79.39
78485;BME280;67773;50.806;8.776;2023-03-17T07:19:27;99257.44;;;1.13;79.51
78485;BME280;67773;50.806;8.776;2023-03-17T07:21:53;99263.31;;;1.24;79.17
78485;BME280;67773;50.806;8.776;2023-03-17T07:24:22;99232.03;;;1.20;78.94
78485;BME280;67773;50.806;8.776;2023-03-17T07:26:48;99254.88;;;1.53;78.46
78485;BME280;67773;50.806;8.776;2023-03-17T07:29:14;99255.34;;;1.72;77.48
78485;BME280;67773;50.806;8.776;2023-03-17T07:31:39;99255.28;;;1.75;77.48
78485;BME280;67773;50.806;8.776;2023-03-17T07:34:05;99253.16;;;1.92;76.55
78485;BME280;67773;50.806;8.776;2023-03-17T07:36:32;99225.59;;;1.76;76.23
78485;BME280;67773;50.806;8.776;2023-03-17T07:38:58;99246.97;;;1.95;76.84
78485;BME280;67773;50.806;8.776;2023-03-17T07:41:25;99249.16;;;2.13;76.21
78485;BME280;67773;50.806;8.776;2023-03-17T07:43:51;99241.19;;;2.18;75.39
78485;BME280;67773;50.806;8.776;2023-03-17T07:46:17;99240.16;;;2.25;75.43
78485;BME280;67773;50.806;8.776;2023-03-17T07:48:42;99235.72;;;2.27;76.23
78485;BME280;67773;50.806;8.776;2023-03-17T07:51:12;99230.44;;;2.30;75.63
78485;BME280;67773;50.806;8.776;2023-03-17T07:53:38;99229.91;;;2.50;75.33
78485;BME280;67773;50.806;8.776;2023-03-17T07:56:03;99233.16;;;2.59;75.09
78485;BME280;67773;50.806;8.776;2023-03-17T07:58:29;99229.91;;;2.84;74.28
78485;BME280;67773;50.806;8.776;2023-03-17T08:00:54;99218.28;;;2.94;74.76
78485;BME280;67773;50.806;8.776;2023-03-17T08:03:21;99220.31;;;3.15;73.20
78485;BME280;67773;50.806;8.776;2023-03-17T08:05:53;99220.56;;;3.37;72.90
78485;BME280;67773;50.806;8.776;2023-03-17T08:08:22;99214.69;;;3.59;72.16
78485;BME280;67773;50.806;8.776;2023-03-17T08:10:48;99212.81;;;3.90;70.21
78485;BME280;67773;50.806;8.776;2023-03-17T08:13:14;99197.03;;;3.92;69.94
78485;BME280;67773;50.806;8.776;2023-03-17T08:15:39;99220.03;;;4.12;69.91
78485;BME280;67773;50.806;8.776;2023-03-17T08:18:05;99225.66;;;4.27;68.53
78485;BME280;67773;50.806;8.776;2023-03-17T08:20:31;99217.44;;;4.37;68.18
78485;BME280;67773;50.806;8.776;2023-03-17T08:22:56;99218.06;;;4.45;68.41
78485;BME280;67773;50.806;8.776;2023-03-17T08:25:22;99212.69;;;4.48;66.94
78485;BME280;67773;50.806;8.776;2023-03-17T08:27:47;99220.75;;;4.68;66.79
78485;BME280;67773;50.806;8.776;2023-03-17T08:30:13;99216.44;;;4.92;65.51
78485;BME280;67773;50.806;8.776;2023-03-17T08:32:40;99208.38;;;4.97;65.72
78485;BME280;67773;50.806;8.776;2023-03-17T08:35:09;99203.00;;;5.00;65.55
78485;BME280;67773;50.806;8.776;2023-03-17T08:37:35;99201.31;;;5.22;64.48
78485;BME280;67773;50.806;8.776;2023-03-17T08:40:02;99190.84;;;5.44;62.36
78485;BME280;67773;50.806;8.776;2023-03-17T08:42:29;99194.34;;;5.44;62.31
78485;BME280;67773;50.806;8.776;2023-03-17T08:44:54;99185.47;;;5.47;62.53
78485;BME280;67773;50.806;8.776;2023-03-17T08:47:20;99185.06;;;5.58;61.83
78485;BME280;67773;50.806;8.776;2023-03-17T08:49:45;99194.53;;;5.85;61.85
78485;BME280;67773;50.806;8.776;2023-03-17T08:52:11;99195.78;;;5.98;61.00
78485;BME280;67773;50.806;8.776;2023-03-17T08:54:36;99185.44;;;6.16;60.59
78485;BME280;67773;50.806;8.776;2023-03-17T08:57:01;99189.28;;;6.49;59.98
78485;BME280;67773;50.806;8.776;2023-03-17T08:59:28;99173.56;;;7.07;58.50
78485;BME280;67773;50.806;8.776;2023-03-17T09:01:53;99167.91;;;7.73;54.52
78485;BME280;67773;50.806;8.776;2023-03-17T09:04:19;99175.25;;;8.21;53.56
78485;BME280;67773;50.806;8.776;2023-03-17T09:06:47;99165.34;;;8.44;52.17
78485;BME280;67773;50.806;8.776;2023-03-17T09:09:12;99163.81;;;9.07;50.21
78485;BME280;67773;50.806;8.776;2023-03-17T09:11:39;99168.66;;;9.32;49.82
78485;BME280;67773;50.806;8.776;2023-03-17T09:14:04;99166.63;;;9.69;48.26
78485;BME280;67773;50.806;8.776;2023-03-17T09:16:29;99165.94;;;10.12;48.24
78485;BME280;67773;50.806;8.776;2023-03-17T09:18:58;99134.16;;;11.44;44.36
78485;BME280;67773;50.806;8.776;2023-03-17T09:21:23;99151.00;;;12.39;42.38
78485;BME280;67773;50.806;8.776;2023-03-17T09:23:48;99153.34;;;12.31;42.80
78485;BME280;67773;50.806;8.776;2023-03-17T09:26:14;99144.69;;;12.80;41.15
78485;BME280;67773;50.806;8.776;2023-03-17T09:28:40;99147.28;;;12.94;40.58
78485;BME280;67773;50.806;8.776;2023-03-17T09:31:06;99143.22;;;13.14;40.34
78485;BME280;67773;50.806;8.776;2023-03-17T09:33:36;99153.00;;;13.01;40.84
78485;BME280;67773;50.806;8.776;2023-03-17T09:36:02;99144.03;;;13.53;39.47
78485;BME280;67773;50.806;8.776;2023-03-17T09:38:27;99148.34;;;13.05;40.44
78485;BME280;67773;50.806;8.776;2023-03-17T09:40:55;99149.72;;;13.23;39.82
78485;BME280;67773;50.806;8.776;2023-03-17T09:43:30;99144.63;;;15.00;36.55
78485;BME280;67773;50.806;8.776;2023-03-17T09:46:09;99128.75;;;16.84;32.96
78485;BME280;67773;50.806;8.776;2023-03-17T09:49:19;99116.75;;;19.72;29.18
78485;BME280;67773;50.806;8.776;2023-03-17T09:51:49;99106.59;;;21.08;27.13
78485;BME280;67773;50.806;8.776;2023-03-17T09:54:26;99107.69;;;21.83;25.64
78485;BME280;67773;50.806;8.776;2023-03-17T09:57:12;99099.25;;;22.94;24.07
78485;BME280;67773;50.806;8.776;2023-03-17T09:59:43;99099.63;;;23.94;22.37
78485;BME280;67773;50.806;8.776;2023-03-17T10:02:37;99106.66;;;22.67;24.64
78485;BME280;67773;50.806;8.776;2023-03-17T10:05:17;99106.00;;;22.65;24.02
78485;BME280;67773;50.806;8.776;2023-03-17T10:13:50;99086.78;;;20.73;27.15
78485;BME280;67773;50.806;8.776;2023-03-17T10:16:18;99092.94;;;18.93;29.72
78485;BME280;67773;50.806;8.776;2023-03-17T10:18:52;99109.81;;;18.46;30.27
78485;BME280;67773;50.806;8.776;2023-03-17T10:21:21;99107.13;;;18.56;29.73
78485;BME280;67773;50.806;8.776;2023-03-17T10:23:51;99075.28;;;18.52;30.65
78485;BME280;67773;50.806;8.776;2023-03-17T10:26:28;99083.25;;;19.47;28.55
78485;BME280;67773;50.806;8.776;2023-03-17T10:28:55;99084.97;;;19.38;28.27
78485;BME280;67773;50.806;8.776;2023-03-17T10:31:29;99077.84;;;19.84;28.34
78485;BME280;67773;50.806;8.776;2023-03-17T10:34:10;99083.50;;;19.16;29.01
78485;BME280;67773;50.806;8.776;2023-03-17T10:36:38;99079.75;;;18.99;29.47
78485;BME280;67773;50.806;8.776;2023-03-17T10:39:06;99086.19;;;18.40;31.00
78485;BME280;67773;50.806;8.776;2023-03-17T10:41:43;99083.03;;;17.87;30.74
78485;BME280;67773;50.806;8.776;2023-03-17T10:44:42;99091.75;;;16.46;32.82
78485;BME280;67773;50.806;8.776;2023-03-17T10:49:45;99095.75;;;14.64;35.51
78485;BME280;67773;50.806;8.776;2023-03-17T10:52:18;99105.03;;;14.48;36.05
78485;BME280;67773;50.806;8.776;2023-03-17T10:54:48;99098.47;;;14.16;37.50
78485;BME280;67773;50.806;8.776;2023-03-17T10:57:15;99073.53;;;14.29;37.12
78485;BME280;67773;50.806;8.776;2023-03-17T10:59:48;99086.81;;;14.99;37.48
78485;BME280;67773;50.806;8.776;2023-03-17T11:02:19;99073.97;;;15.04;35.72
78485;BME280;67773;50.806;8.776;2023-03-17T11:04:45;99062.75;;;15.55;34.38
78485;BME280;67773;50.806;8.776;2023-03-17T11:07:18;99057.91;;;15.26;35.64
78485;BME280;67773;50.806;8.776;2023-03-17T11:09:49;99048.97;;;15.71;35.02
78485;BME280;67773;50.806;8.776;2023-03-17T11:12:22;99060.09;;;15.44;35.21
78485;BME280;67773;50.806;8.776;2023-03-17T11:14:59;99074.81;;;14.47;37.50
78485;BME280;67773;50.806;8.776;2023-03-17T11:23:16;99047.25;;;15.81;36.00
78485;BME280;67773;50.806;8.776;2023-03-17T11:25:44;99044.28;;;15.29;36.21
78485;BME280;67773;50.806;8.776;2023-03-17T11:28:19;99057.41;;;15.44;35.96
78485;BME280;67773;50.806;8.776;2023-03-17T11:36:18;99049.88;;;16.24;35.14
78485;BME280;67773;50.806;8.776;2023-03-17T11:39:02;99038.31;;;16.44;35.25
78485;BME280;67773;50.806;8.776;2023-03-17T11:44:20;99046.72;;;15.21;36.98
78485;BME280;67773;50.806;8.776;2023-03-17T11:46:51;99046.72;;;14.88;37.88
78485;BME280;67773;50.806;8.776;2023-03-17T11:49:35;99059.47;;;14.38;38.89
78485;BME280;67773;50.806;8.776;2023-03-17T11:52:23;99053.72;;;14.20;39.68
78485;BME280;67773;50.806;8.776;2023-03-17T11:55:13;99038.72;;;14.99;38.04
78485;BME280;67773;50.806;8.776;2023-03-17T11:57:46;99044.31;;;14.96;37.85
78485;BME280;67773;50.806;8.776;2023-03-17T12:00:22;99032.41;;;15.22;37.67
78485;BME280;67773;50.806;8.776;2023-03-17T12:02:53;99030.47;;;15.79;36.97
78485;BME280;67773;50.806;8.776;2023-03-17T12:05:24;99032.81;;;16.25;36.86
78485;BME280;67773;50.806;8.776;2023-03-17T12:08:04;99036.00;;;16.72;34.91
78485;BME280;67773;50.806;8.776;2023-03-17T12:10:35;99026.59;;;16.04;35.75
78485;BME280;67773;50.806;8.776;2023-03-17T12:13:10;99035.50;;;16.67;34.17
78485;BME280;67773;50.806;8.776;2023-03-17T12:21:07;99027.03;;;15.88;36.15
78485;BME280;67773;50.806;8.776;2023-03-17T12:23:47;99037.38;;;16.13;36.29
78485;BME280;67773;50.806;8.776;2023-03-17T12:26:34;99036.97;;;15.54;37.07
78485;BME280;67773;50.806;8.776;2023-03-17T12:31:38;99027.03;;;14.55;39.43
78485;BME280;67773;50.806;8.776;2023-03-17T12:34:25;99024.50;;;14.76;38.48
78485;BME280;67773;50.806;8.776;2023-03-17T12:36:52;99004.13;;;14.29;39.93
78485;BME280;67773;50.806;8.776;2023-03-17T12:39:31;99019.63;;;14.24;39.36
78485;BME280;67773;50.806;8.776;2023-03-17T12:50:17;99000.56;;;14.63;39.01
78485;BME280;67773;50.806;8.776;2023-03-17T12:53:03;99004.69;;;14.90;39.22
78485;BME280;67773;50.806;8.776;2023-03-17T12:55:34;98992.31;;;14.89;38.35
78485;BME280;67773;50.806;8.776;2023-03-17T12:58:04;99003.47;;;15.16;37.21
78485;BME280;67773;50.806;8.776;2023-03-17T13:00:47;98989.84;;;15.19;36.88
78485;BME280;67773;50.806;8.776;2023-03-17T13:05:49;98984.06;;;15.03;37.63
78485;BME280;67773;50.806;8.776;2023-03-17T13:08:22;98988.09;;;15.41;36.54
78485;BME280;67773;50.806;8.776;2023-03-17T13:10:48;98966.00;;;15.39;37.32
78485;BME280;67773;50.806;8.776;2023-03-17T13:13:44;98977.97;;;15.12;37.51
78485;BME280;67773;50.806;8.776;2023-03-17T13:16:37;98985.53;;;14.85;38.51
78485;BME280;67773;50.806;8.776;2023-03-17T13:19:18;98985.47;;;14.40;39.59
78485;BME280;67773;50.806;8.776;2023-03-17T13:24:52;98982.25;;;14.12;40.14
78485;BME280;67773;50.806;8.776;2023-03-17T13:29:55;98986.59;;;14.13;39.89
78485;BME280;67773;50.806;8.776;2023-03-17T13:34:51;98978.16;;;14.20;39.67
78485;BME280;67773;50.806;8.776;2023-03-17T13:37:29;98977.00;;;14.46;39.68
78485;BME280;67773;50.806;8.776;2023-03-17T13:40:30;98978.69;;;14.58;39.97
78485;BME280;67773;50.806;8.776;2023-03-17T13:45:47;98979.06;;;14.65;39.23
78485;BME280;67773;50.806;8.776;2023-03-17T13:48:34;98966.09;;;14.83;39.42
78485;BME280;67773;50.806;8.776;2023-03-17T13:53:39;98974.69;;;14.97;38.36
78485;BME280;67773;50.806;8.776;2023-03-17T14:01:18;98973.09;;;15.06;38.76
78485;BME280;67773;50.806;8.776;2023-03-17T14:03:48;98977.38;;;14.86;39.93
78485;BME280;67773;50.806;8.776;2023-03-17T14:06:15;98960.88;;;14.70;39.08
78485;BME280;67773;50.806;8.776;2023-03-17T14:08:59;98978.22;;;14.76;39.14
78485;BME280;67773;50.806;8.776;2023-03-17T14:11:45;98968.63;;;14.51;39.78
78485;BME280;67773;50.806;8.776;2023-03-17T14:14:35;98963.97;;;14.41;40.21
78485;BME280;67773;50.806;8.776;2023-03-17T14:17:12;98959.72;;;14.28;40.21
78485;BME280;67773;50.806;8.776;2023-03-17T14:19:39;98962.34;;;14.16;40.56